Time;durP1;ratioP1;P1;durP2;ratioP2;P2;SDS_P1;SDS_P2;PMS_P1;PMS_P2;Temp;Humidity;BMP_temperature;BMP_pressure;BME280_temperature;BME280_humidity;BME280_pressure;Samples;Min_cycle;Max_cycle;Signal;HPM_P1;HPM_P2
2022/10/12 00:00:30;;;;;;;18.70;9.60;;;21.60;68.80;;;;;;214949;1288;22602;-64
2022/10/12 00:06:05;;;;;;;14.10;9.30;;;21.60;68.30;;;;;;214766;1300;23621;-64
2022/10/12 00:11:13;;;;;;;12.50;8.40;;;21.60;68.60;;;;;;214950;1282;24223;-65
2022/10/12 00:16:18;;;;;;;15.90;9.70;;;21.60;68.50;;;;;;215032;1286;22454;-63
2022/10/12 00:21:23;;;;;;;14.20;8.80;;;21.50;68.40;;;;;;214955;1292;23842;-64
2022/10/12 00:26:28;;;;;;;17.00;8.50;;;21.50;68.40;;;;;;215045;1285;24082;-64
2022/10/12 00:31:31;;;;;;;20.20;9.90;;;21.40;68.30;;;;;;214982;1298;23709;-63
2022/10/12 00:36:35;;;;;;;13.60;9.70;;;21.40;68.30;;;;;;214977;1288;25591;-64
2022/10/12 00:41:44;;;;;;;15.10;8.80;;;21.40;68.50;;;;;;214921;1300;25243;-65
2022/10/12 00:46:52;;;;;;;12.50;8.30;;;21.30;68.50;;;;;;214642;1284;23174;-63
2022/10/12 00:52:01;;;;;;;13.20;8.80;;;21.30;68.70;;;;;;215050;1294;24064;-62
2022/10/12 00:57:06;;;;;;;13.80;8.60;;;21.20;68.80;;;;;;214958;1295;23883;-64
2022/10/12 01:02:10;;;;;;;12.80;8.50;;;21.20;68.80;;;;;;214923;1291;22452;-62
2022/10/12 01:07:14;;;;;;;14.50;8.90;;;21.20;68.90;;;;;;215068;1285;24864;-64
2022/10/12 01:12:18;;;;;;;15.80;9.60;;;21.10;69.00;;;;;;215042;1293;25376;-64
2022/10/12 01:17:34;;;;;;;17.80;8.20;;;21.10;68.90;;;;;;214974;1294;25897;-65
2022/10/12 01:22:47;;;;;;;15.30;8.90;;;21.10;69.10;;;;;;215106;1294;22495;-64
2022/10/12 01:27:53;;;;;;;13.80;9.10;;;21.00;68.80;;;;;;215041;1281;22465;-63
2022/10/12 01:33:15;;;;;;;13.40;8.20;;;21.00;69.30;;;;;;215120;1282;24681;-64
2022/10/12 01:39:03;;;;;;;14.30;9.10;;;21.00;68.90;;;;;;214988;1284;25637;-62
2022/10/12 01:44:07;;;;;;;13.80;9.10;;;21.00;69.00;;;;;;213971;1288;22539;-65
2022/10/12 01:49:12;;;;;;;12.50;8.60;;;20.90;69.00;;;;;;214637;1293;25541;-63
2022/10/12 01:54:33;;;;;;;13.20;8.70;;;20.90;69.00;;;;;;214674;1285;22588;-63
2022/10/12 02:00:01;;;;;;;16.10;8.40;;;20.90;69.40;;;;;;214878;1281;24356;-64
2022/10/12 02:05:09;;;;;;;13.80;9.20;;;20.90;69.00;;;;;;214963;1285;24231;-64
2022/10/12 02:10:29;;;;;;;14.70;9.30;;;20.90;68.90;;;;;;214870;1300;26441;-65
2022/10/12 02:15:34;;;;;;;13.00;8.60;;;20.80;69.00;;;;;;214931;1284;26073;-66
2022/10/12 02:20:39;;;;;;;15.40;9.00;;;20.80;69.00;;;;;;215025;1287;22623;-65
2022/10/12 02:25:46;;;;;;;15.40;9.60;;;20.80;69.30;;;;;;214835;1297;22612;-63
2022/10/12 02:31:04;;;;;;;14.00;8.80;;;20.80;69.40;;;;;;214931;1300;22478;-62
2022/10/12 02:36:31;;;;;;;13.50;8.60;;;20.80;68.90;;;;;;214916;1300;25270;-62
2022/10/12 02:41:42;;;;;;;12.00;8.30;;;20.70;69.00;;;;;;215036;1282;24223;-63
2022/10/12 02:46:58;;;;;;;13.60;8.30;;;20.70;69.00;;;;;;214937;1286;22476;-67
2022/10/12 02:52:06;;;;;;;14.30;8.70;;;20.70;69.10;;;;;;214975;1294;26487;-60
2022/10/12 02:57:36;;;;;;;;;;;20.70;69.10;;;;;;214893;1297;22580;-65
2022/10/12 03:02:41;;;;;;;24.50;10.10;;;20.60;69.10;;;;;;214986;1282;22494;-64
2022/10/12 03:08:19;;;;;;;13.80;9.00;;;20.60;69.60;;;;;;215115;1281;24232;-63
2022/10/12 03:13:30;;;;;;;13.10;8.40;;;20.60;69.50;;;;;;213482;1300;25314;-64
2022/10/12 03:18:43;;;;;;;15.90;9.10;;;20.60;69.50;;;;;;214700;1277;24254;-64
2022/10/12 03:23:47;;;;;;;11.80;7.50;;;20.90;69.10;;;;;;214736;1291;25517;-65
2022/10/12 03:28:50;;;;;;;11.60;7.90;;;21.10;68.00;;;;;;214884;1294;22470;-63
2022/10/12 03:33:54;;;;;;;14.20;8.70;;;21.30;67.50;;;;;;215013;1294;26031;-68
2022/10/12 03:39:03;;;;;;;15.80;9.20;;;21.40;66.90;;;;;;214871;1294;22463;-67
2022/10/12 03:44:09;;;;;;;13.70;9.10;;;21.50;66.90;;;;;;214942;1275;22471;-64
2022/10/12 03:49:12;;;;;;;16.60;10.70;;;21.60;66.40;;;;;;214964;1298;22457;-63
2022/10/12 03:54:16;;;;;;;14.30;9.70;;;21.70;66.10;;;;;;214826;1297;27436;-66
2022/10/12 03:59:19;;;;;;;16.60;10.30;;;21.70;66.10;;;;;;214846;1295;22470;-62
2022/10/12 04:04:22;;;;;;;16.00;9.10;;;21.70;65.90;;;;;;214999;1273;23980;-66
2022/10/12 04:09:26;;;;;;;16.50;10.20;;;21.80;65.80;;;;;;215012;1283;22470;-66
2022/10/12 04:14:29;;;;;;;14.60;9.70;;;21.80;65.70;;;;;;214974;1295;25278;-64
2022/10/12 04:19:33;;;;;;;18.10;9.40;;;21.80;65.60;;;;;;215052;1290;23846;-66
2022/10/12 04:24:37;;;;;;;16.00;9.60;;;21.80;65.60;;;;;;215052;1269;23199;-67
2022/10/12 04:29:40;;;;;;;14.60;9.90;;;21.80;65.60;;;;;;215111;1284;22576;-64
2022/10/12 04:34:44;;;;;;;15.20;10.40;;;21.80;66.30;;;;;;215147;1293;23838;-66
2022/10/12 04:39:47;;;;;;;16.80;10.10;;;21.70;65.70;;;;;;214932;1286;22601;-65
2022/10/12 04:44:50;;;;;;;16.70;10.10;;;21.70;65.80;;;;;;214953;1286;25241;-64
2022/10/12 04:49:54;;;;;;;14.80;9.70;;;21.70;66.00;;;;;;214984;1282;22710;-66
2022/10/12 04:54:57;;;;;;;16.40;10.10;;;21.70;66.40;;;;;;214989;1297;22562;-65
2022/10/12 05:00:01;;;;;;;14.50;10.10;;;21.70;66.00;;;;;;214943;1284;24298;-63
2022/10/12 05:05:05;;;;;;;15.90;10.50;;;21.60;66.10;;;;;;214988;1275;24261;-66
2022/10/12 05:10:08;;;;;;;15.30;10.40;;;21.60;66.20;;;;;;215073;1284;24325;-65
2022/10/12 05:15:12;;;;;;;14.30;9.10;;;21.60;66.30;;;;;;214835;1287;25363;-66
2022/10/12 05:20:18;;;;;;;17.90;10.20;;;21.70;66.30;;;;;;214958;1285;22480;-65
2022/10/12 05:25:23;;;;;;;19.00;9.90;;;21.70;66.90;;;;;;215113;1299;23078;-64
2022/10/12 05:30:27;;;;;;;17.90;10.30;;;21.70;66.80;;;;;;215066;1286;22522;-66
2022/10/12 05:35:30;;;;;;;21.80;10.50;;;21.80;67.10;;;;;;215013;1298;25347;-64
2022/10/12 05:40:34;;;;;;;22.10;10.40;;;21.80;67.70;;;;;;214931;1284;22468;-64
2022/10/12 05:45:37;;;;;;;27.50;11.10;;;21.90;68.70;;;;;;214778;1282;25373;-64
2022/10/12 05:50:41;;;;;;;19.70;10.20;;;21.90;68.60;;;;;;214967;1299;22724;-63
2022/10/12 05:56:10;;;;;;;22.20;10.30;;;21.80;68.60;;;;;;214730;1291;24265;-63
2022/10/12 06:01:14;;;;;;;23.70;10.70;;;21.80;67.80;;;;;;214796;1284;22830;-63
2022/10/12 06:06:18;;;;;;;19.20;10.10;;;21.80;67.60;;;;;;214857;1282;219886;-67
2022/10/12 06:11:21;;;;;;;22.40;11.20;;;21.80;67.30;;;;;;214653;1292;22464;-63
2022/10/12 06:16:25;;;;;;;22.00;9.90;;;21.80;67.80;;;;;;214731;1286;24374;-64
2022/10/12 06:21:28;;;;;;;30.10;13.50;;;21.80;67.60;;;;;;214996;1294;23948;-64
2022/10/12 06:26:37;;;;;;;26.50;13.90;;;21.60;65.80;;;;;;214878;1285;24346;-68
2022/10/12 06:31:44;;;;;;;23.80;13.80;;;21.50;64.40;;;;;;215156;1281;24216;-64
2022/10/12 06:36:53;;;;;;;30.60;15.10;;;21.60;63.80;;;;;;215089;1284;24226;-65
2022/10/12 06:42:03;;;;;;;27.20;13.50;;;21.60;63.50;;;;;;214972;1300;26466;-64
2022/10/12 06:47:07;;;;;;;27.00;14.00;;;21.60;63.70;;;;;;215087;1300;22462;-66
2022/10/12 06:52:10;;;;;;;28.00;14.40;;;21.60;64.10;;;;;;214894;1280;24348;-63
2022/10/12 06:57:13;;;;;;;31.80;13.70;;;21.60;64.30;;;;;;214952;1300;22467;-67
2022/10/12 07:02:17;;;;;;;23.40;13.30;;;21.60;64.60;;;;;;214646;1284;23067;-65
2022/10/12 07:07:20;;;;;;;29.50;14.30;;;21.60;64.60;;;;;;215092;1300;25232;-64
2022/10/12 07:12:24;;;;;;;28.40;13.40;;;21.60;64.70;;;;;;214873;1290;22834;-65
2022/10/12 07:17:27;;;;;;;25.60;13.70;;;21.60;64.70;;;;;;215101;1294;22467;-67
2022/10/12 07:22:31;;;;;;;24.70;12.60;;;21.60;64.80;;;;;;214982;1285;24256;-65
2022/10/12 07:27:34;;;;;;;25.40;13.60;;;21.50;64.80;;;;;;214903;1300;25254;-68
2022/10/12 07:32:38;;;;;;;19.80;12.00;;;21.50;64.80;;;;;;215057;1281;24821;-68
2022/10/12 07:37:42;;;;;;;20.20;12.00;;;21.50;64.90;;;;;;214755;1274;24340;-64
2022/10/12 07:42:49;;;;;;;19.80;11.80;;;21.50;65.00;;;;;;214968;1283;22459;-64
2022/10/12 07:48:12;;;;;;;23.20;12.90;;;21.50;65.50;;;;;;215011;1281;22582;-67
2022/10/12 07:53:16;;;;;;;28.10;13.00;;;21.40;66.00;;;;;;214954;1300;25373;-69
2022/10/12 07:58:19;;;;;;;25.30;12.90;;;21.50;68.30;;;;;;214891;1284;22475;-65
2022/10/12 08:03:23;;;;;;;21.80;12.50;;;21.50;67.40;;;;;;214968;1285;23446;-66
2022/10/12 08:08:26;;;;;;;21.70;12.70;;;21.50;67.30;;;;;;215098;1285;25354;-66
2022/10/12 08:13:31;;;;;;;20.20;12.00;;;21.50;67.00;;;;;;215023;1284;25207;-64
2022/10/12 08:18:35;;;;;;;18.20;11.60;;;21.50;66.80;;;;;;215101;1282;22663;-68
2022/10/12 08:23:39;;;;;;;21.90;12.30;;;21.50;66.70;;;;;;215051;1281;24271;-66
2022/10/12 08:28:43;;;;;;;21.80;12.10;;;21.60;66.70;;;;;;215072;1282;22707;-65
2022/10/12 08:33:47;;;;;;;19.20;12.10;;;21.60;66.50;;;;;;214960;1281;22523;-66
2022/10/12 08:38:53;;;;;;;20.40;11.90;;;21.60;66.50;;;;;;215098;1280;24262;-65
2022/10/12 08:44:29;;;;;;;18.10;10.90;;;21.60;66.20;;;;;;215060;1282;22473;-68
2022/10/12 08:49:47;;;;;;;23.60;12.30;;;21.70;66.60;;;;;;214888;1298;26551;-71
2022/10/12 08:54:54;;;;;;;18.40;11.30;;;21.70;66.00;;;;;;214985;1291;23876;-67
2022/10/12 08:59:58;;;;;;;19.40;11.40;;;21.70;66.00;;;;;;214864;1288;25292;-68
2022/10/12 09:05:18;;;;;;;21.50;11.00;;;21.80;65.90;;;;;;214920;1285;22456;-65
2022/10/12 09:10:34;;;;;;;21.90;11.20;;;21.70;65.90;;;;;;215069;1283;24319;-68
2022/10/12 09:16:01;;;;;;;22.60;12.10;;;21.70;65.80;;;;;;214917;1300;22470;-66
2022/10/12 09:21:14;;;;;;;20.40;11.40;;;21.80;65.70;;;;;;214804;1285;22476;-67
2022/10/12 09:26:24;;;;;;;18.50;10.90;;;21.80;66.30;;;;;;215008;1284;22463;-67
2022/10/12 09:31:34;;;;;;;19.40;10.90;;;21.80;65.60;;;;;;214916;1284;22469;-68
2022/10/12 09:36:40;;;;;;;18.80;11.10;;;21.90;65.30;;;;;;215097;1288;24385;-68
2022/10/12 09:41:47;;;;;;;15.00;9.60;;;21.90;65.40;;;;;;215072;1285;24396;-64
2022/10/12 09:47:05;;;;;;;19.50;10.60;;;22.00;65.30;;;;;;215044;1285;23844;-65
2022/10/12 09:52:10;;;;;;;17.80;9.90;;;22.00;65.10;;;;;;214857;1297;22704;-67
2022/10/12 09:57:23;;;;;;;18.50;10.00;;;22.10;65.00;;;;;;215087;1281;22466;-67
2022/10/12 10:02:27;;;;;;;17.10;10.00;;;22.10;65.30;;;;;;215084;1291;22553;-66
2022/10/12 10:07:33;;;;;;;20.50;10.30;;;22.20;64.80;;;;;;215150;1288;24320;-66
2022/10/12 10:13:00;;;;;;;15.60;9.30;;;22.20;64.70;;;;;;215047;1280;22723;-67
2022/10/12 10:18:24;;;;;;;15.10;9.90;;;22.30;65.00;;;;;;215066;1291;24248;-69
2022/10/12 10:23:38;;;;;;;18.50;9.70;;;22.30;64.50;;;;;;214944;1290;25357;-66
2022/10/12 10:28:44;;;;;;;16.30;9.40;;;22.40;64.40;;;;;;214807;1285;24235;-67
2022/10/12 10:34:06;;;;;;;16.90;8.60;;;22.40;64.20;;;;;;215119;1297;25354;-67
2022/10/12 10:39:22;;;;;;;13.80;9.50;;;22.50;64.10;;;;;;214963;1291;22517;-67
2022/10/12 10:44:27;;;;;;;15.60;9.00;;;22.50;64.50;;;;;;214950;1274;25207;-66
2022/10/12 10:49:44;;;;;;;13.80;9.00;;;22.50;64.30;;;;;;214936;1299;24044;-65
2022/10/12 10:55:24;;;;;;;14.40;9.20;;;22.60;63.80;;;;;;215000;1285;25536;-67
2022/10/12 11:00:30;;;;;;;17.70;9.00;;;22.60;63.70;;;;;;214859;1285;22517;-69
2022/10/12 11:05:50;;;;;;;17.50;8.90;;;22.70;64.00;;;;;;214787;1292;23183;-66
2022/10/12 11:11:02;;;;;;;14.80;8.80;;;22.60;63.70;;;;;;215087;1299;22505;-67
2022/10/12 11:16:24;;;;;;;14.10;8.80;;;22.50;64.00;;;;;;215031;1288;24250;-65
2022/10/12 11:21:50;;;;;;;13.60;8.90;;;22.60;63.70;;;;;;214676;1293;22469;-66
2022/10/12 11:26:53;;;;;;;16.90;9.70;;;22.70;63.60;;;;;;214886;1292;24024;-67
2022/10/12 11:32:03;;;;;;;13.90;8.10;;;22.70;63.40;;;;;;214999;1282;22600;-67
2022/10/12 11:37:16;;;;;;;17.10;9.00;;;22.80;63.30;;;;;;215002;1284;24226;-65
2022/10/12 11:42:30;;;;;;;20.10;9.70;;;22.80;63.20;;;;;;215090;1292;22643;-66
2022/10/12 11:47:40;;;;;;;14.30;8.10;;;22.80;62.80;;;;;;215089;1280;24230;-66
2022/10/12 11:52:47;;;;;;;13.60;8.60;;;22.90;63.10;;;;;;214914;1284;21823;-68
2022/10/12 11:57:54;;;;;;;12.60;7.40;;;22.90;63.40;;;;;;214782;1288;24246;-66
2022/10/12 12:03:15;;;;;;;13.30;8.10;;;22.80;63.20;;;;;;215058;1300;23977;-66
2022/10/12 12:08:42;;;;;;;12.20;7.50;;;22.80;63.20;;;;;;214926;1285;22492;-67
2022/10/12 12:13:46;;;;;;;16.10;8.10;;;22.70;63.80;;;;;;214597;1296;22703;-66
2022/10/12 12:19:13;;;;;;;13.00;7.80;;;22.70;63.80;;;;;;214873;1285;23869;-68
2022/10/12 12:24:17;;;;;;;14.70;8.50;;;22.70;63.50;;;;;;214957;1285;24262;-66
2022/10/12 12:29:26;;;;;;;12.00;7.50;;;22.60;63.50;;;;;;215201;1286;22645;-65
2022/10/12 12:34:30;;;;;;;14.10;7.80;;;22.60;63.60;;;;;;215080;1285;24301;-58
2022/10/12 12:39:34;;;;;;;13.40;7.60;;;22.60;63.60;;;;;;214969;1284;24396;-65
2022/10/12 12:44:39;;;;;;;14.20;8.00;;;22.60;63.70;;;;;;215225;1300;26751;-68
2022/10/12 12:49:53;;;;;;;17.60;7.60;;;22.50;63.60;;;;;;215066;1287;22709;-66
2022/10/12 12:55:38;;;;;;;14.20;6.60;;;22.50;63.50;;;;;;215107;1285;26462;-66
2022/10/12 13:00:57;;;;;;;15.90;7.20;;;22.50;63.70;;;;;;214701;1294;24229;-64
2022/10/12 13:06:19;;;;;;;16.70;7.50;;;22.50;63.70;;;;;;215073;1282;24257;-67
2022/10/12 13:11:28;;;;;;;11.70;6.50;;;22.50;63.80;;;;;;215029;1284;24208;-64
2022/10/12 13:17:07;;;;;;;11.60;7.10;;;22.40;63.90;;;;;;215072;1292;24229;-63
2022/10/12 13:22:33;;;;;;;13.50;6.70;;;22.40;64.00;;;;;;214939;1295;24257;-64
2022/10/12 13:27:48;;;;;;;16.00;7.40;;;22.40;63.90;;;;;;214940;1282;24272;-65
2022/10/12 13:32:57;;;;;;;12.40;6.60;;;22.40;64.00;;;;;;214973;1295;24065;-67
2022/10/12 13:38:20;;;;;;;12.40;6.70;;;22.30;64.00;;;;;;214943;1284;22590;-64
2022/10/12 13:43:35;;;;;;;11.50;6.30;;;22.30;64.30;;;;;;214925;1275;22511;-67
2022/10/12 13:48:38;;;;;;;11.40;6.10;;;22.30;63.90;;;;;;214993;1285;23687;-67
2022/10/12 13:54:12;;;;;;;10.00;6.10;;;22.40;63.90;;;;;;215085;1292;22645;-65
2022/10/12 13:59:22;;;;;;;14.20;6.70;;;22.40;63.70;;;;;;214954;1290;22631;-66
2022/10/12 14:04:34;;;;;;;10.80;5.80;;;22.40;63.80;;;;;;215003;1288;24329;-66
2022/10/12 14:09:46;;;;;;;8.90;6.00;;;22.40;63.80;;;;;;215146;1288;22707;-65
2022/10/12 14:14:50;;;;;;;12.20;6.40;;;22.40;64.10;;;;;;215078;1292;26583;-65
2022/10/12 14:19:58;;;;;;;11.80;6.50;;;22.40;63.70;;;;;;214770;1295;22836;-65
2022/10/12 14:25:21;;;;;;;10.60;6.30;;;22.40;64.20;;;;;;215014;1288;24229;-64
2022/10/12 14:30:34;;;;;;;11.20;6.00;;;22.40;63.70;;;;;;214897;1300;24254;-68
2022/10/12 14:35:40;;;;;;;10.20;5.50;;;22.40;63.80;;;;;;215114;1288;24884;-65
2022/10/12 14:40:44;;;;;;;12.60;6.60;;;22.30;63.80;;;;;;215135;1296;22470;-68
2022/10/12 14:45:48;;;;;;;8.80;5.50;;;22.30;63.80;;;;;;214971;1280;22668;-67
2022/10/12 14:51:03;;;;;;;11.90;6.10;;;22.30;64.20;;;;;;215017;1292;25399;-66
2022/10/12 14:56:22;;;;;;;9.90;5.90;;;22.30;63.90;;;;;;214999;1291;22844;-65
2022/10/12 15:01:45;;;;;;;12.60;6.00;;;22.30;63.90;;;;;;214916;1298;25302;-65
2022/10/12 15:07:04;;;;;;;12.20;5.80;;;22.30;64.00;;;;;;214931;1288;22833;-67
2022/10/12 15:12:26;;;;;;;11.50;6.40;;;22.30;63.60;;;;;;214883;1291;22468;-65
2022/10/12 15:17:30;;;;;;;9.70;5.80;;;22.20;63.80;;;;;;215080;1291;22461;-66
2022/10/12 15:22:47;;;;;;;10.60;5.90;;;22.20;64.00;;;;;;215031;1288;22807;-65
2022/10/12 15:28:07;;;;;;;11.10;5.70;;;22.20;64.00;;;;;;215023;1282;24201;-65
2022/10/12 15:33:22;;;;;;;11.70;6.00;;;22.20;64.00;;;;;;215033;1300;22519;-67
2022/10/12 15:38:47;;;;;;;9.70;5.50;;;22.10;64.60;;;;;;215019;1295;23059;-66
2022/10/12 15:44:08;;;;;;;9.80;5.60;;;22.10;64.00;;;;;;214796;1284;24343;-66
2022/10/12 15:49:13;;;;;;;7.50;5.00;;;22.10;64.00;;;;;;214777;1296;26592;-68
2022/10/12 15:54:22;;;;;;;9.40;5.50;;;22.10;64.00;;;;;;215024;1286;24640;-65
2022/10/12 15:59:26;;;;;;;10.00;5.80;;;22.10;64.00;;;;;;215084;1290;22476;-64
2022/10/12 16:04:38;;;;;;;12.60;5.80;;;22.00;64.00;;;;;;215105;1298;22965;-65
2022/10/12 16:09:51;;;;;;;9.60;5.30;;;21.90;64.20;;;;;;215040;1298;24239;-65
2022/10/12 16:15:17;;;;;;;9.70;5.80;;;21.90;64.30;;;;;;215148;1287;22995;-64
2022/10/12 16:20:29;;;;;;;7.60;5.30;;;21.90;64.40;;;;;;215005;1281;24250;-65
2022/10/12 16:25:34;;;;;;;12.00;6.00;;;21.90;64.40;;;;;;215005;1294;24059;-63
2022/10/12 16:30:41;;;;;;;10.20;5.50;;;21.80;64.40;;;;;;215214;1288;24234;-65
2022/10/12 16:35:48;;;;;;;8.90;5.20;;;21.80;64.40;;;;;;215041;1281;22930;-65
2022/10/12 16:40:55;;;;;;;9.30;5.60;;;21.80;64.30;;;;;;215116;1298;22466;-66
2022/10/12 16:45:58;;;;;;;10.90;6.40;;;21.80;65.10;;;;;;214951;1286;22606;-64
2022/10/12 16:51:08;;;;;;;10.80;5.80;;;21.80;65.00;;;;;;215030;1297;22666;-64
2022/10/12 16:56:14;;;;;;;9.40;5.70;;;21.80;64.60;;;;;;214836;1288;23111;-64
2022/10/12 17:01:37;;;;;;;11.50;6.30;;;21.80;64.50;;;;;;214915;1292;22584;-63
2022/10/12 17:06:44;;;;;;;9.60;6.00;;;21.80;64.20;;;;;;214927;1288;25521;-64
2022/10/12 17:11:48;;;;;;;9.70;5.90;;;21.70;64.40;;;;;;214885;1286;22493;-66
2022/10/12 17:16:56;;;;;;;11.80;6.60;;;21.70;64.80;;;;;;214760;1300;23997;-64
2022/10/12 17:22:03;;;;;;;12.40;6.40;;;21.70;64.50;;;;;;214897;1298;22654;-65
2022/10/12 17:27:10;;;;;;;14.10;6.60;;;21.70;64.40;;;;;;214726;1286;22588;-65
2022/10/12 17:32:14;;;;;;;10.80;5.80;;;21.70;64.30;;;;;;214895;1300;23838;-64
2022/10/12 17:37:20;;;;;;;12.20;6.00;;;21.60;64.20;;;;;;214895;1281;23033;-64
2022/10/12 17:42:34;;;;;;;10.20;6.30;;;21.60;64.10;;;;;;214741;1286;22603;-64
2022/10/12 17:47:43;;;;;;;9.00;6.50;;;21.60;64.20;;;;;;214931;1281;24331;-63
2022/10/12 17:52:47;;;;;;;10.60;6.40;;;21.60;64.10;;;;;;214918;1300;23844;-65
2022/10/12 17:57:55;;;;;;;11.50;7.00;;;21.50;64.00;;;;;;214679;1300;24664;-62
2022/10/12 18:03:02;;;;;;;13.60;7.60;;;21.60;63.90;;;;;;214947;1300;25283;-63
2022/10/12 18:08:06;;;;;;;13.50;7.70;;;21.50;63.90;;;;;;214499;1281;245227;-64
2022/10/12 18:13:10;;;;;;;11.80;8.10;;;21.50;64.30;;;;;;214885;1291;22582;-64
2022/10/12 18:18:13;;;;;;;11.40;6.80;;;21.50;64.30;;;;;;214986;1298;22465;-63
2022/10/12 18:23:24;;;;;;;10.70;6.40;;;21.50;64.20;;;;;;215002;1290;22477;-61
2022/10/12 18:29:21;;;;;;;8.60;6.50;;;21.50;63.80;;;;;;214933;1287;23250;-65
2022/10/12 18:34:47;;;;;;;11.80;7.20;;;21.50;63.70;;;;;;214780;1285;22547;-64
2022/10/12 18:39:57;;;;;;;11.70;7.50;;;21.40;63.90;;;;;;215086;1289;26576;-67
2022/10/12 18:45:05;;;;;;;8.50;6.00;;;21.40;63.60;;;;;;215073;1298;22455;-63
2022/10/12 18:50:16;;;;;;;12.30;7.50;;;21.40;63.60;;;;;;215074;1300;22460;-65
2022/10/12 18:55:23;;;;;;;12.20;7.70;;;21.40;63.90;;;;;;214909;1292;22502;-63
2022/10/12 19:00:40;;;;;;;14.20;7.20;;;21.40;63.70;;;;;;214942;1298;22472;-62
2022/10/12 19:06:19;;;;;;;13.50;7.70;;;21.40;63.80;;;;;;214803;1300;24238;-63
2022/10/12 19:11:42;;;;;;;12.20;7.50;;;21.30;63.90;;;;;;214959;1281;25520;-64
2022/10/12 19:17:20;;;;;;;12.60;8.00;;;21.30;63.80;;;;;;214922;1300;22522;-64
2022/10/12 19:22:29;;;;;;;13.80;6.80;;;21.30;63.60;;;;;;215072;1286;22607;-57
2022/10/12 19:27:36;;;;;;;12.30;7.20;;;21.30;64.00;;;;;;214877;1287;24235;-61
2022/10/12 19:32:47;;;;;;;16.90;8.90;;;21.30;63.50;;;;;;214779;1285;22595;-58
2022/10/12 19:37:54;;;;;;;12.80;8.50;;;21.30;63.50;;;;;;214836;1300;22474;-58
2022/10/12 19:43:03;;;;;;;13.90;8.50;;;21.30;63.50;;;;;;214939;1300;23842;-60
2022/10/12 19:48:08;;;;;;;17.10;8.70;;;21.30;63.50;;;;;;214771;1280;22705;-58
2022/10/12 19:53:19;;;;;;;17.00;9.30;;;21.30;63.40;;;;;;214942;1291;23825;-59
2022/10/12 19:58:27;;;;;;;14.80;8.90;;;21.30;63.40;;;;;;214985;1284;22577;-60
2022/10/12 20:03:35;;;;;;;13.60;9.40;;;21.30;63.70;;;;;;214680;1284;22463;-59
2022/10/12 20:09:00;;;;;;;16.70;9.30;;;21.20;63.20;;;;;;214787;1287;25274;-61
2022/10/12 20:14:05;;;;;;;16.40;10.00;;;21.20;63.00;;;;;;214815;1300;25426;-58
2022/10/12 20:19:09;;;;;;;14.50;10.30;;;21.20;62.80;;;;;;214843;1299;25103;-59
2022/10/12 20:24:13;;;;;;;16.80;9.20;;;21.20;62.50;;;;;;214823;1291;22464;-60
2022/10/12 20:29:23;;;;;;;16.90;10.10;;;21.20;62.40;;;;;;214810;1284;22524;-60
2022/10/12 20:34:28;;;;;;;17.40;9.90;;;21.20;62.70;;;;;;215069;1294;24364;-61
2022/10/12 20:39:41;;;;;;;17.80;11.00;;;21.20;62.20;;;;;;214770;1294;25282;-60
2022/10/12 20:44:55;;;;;;;17.00;10.40;;;21.20;62.10;;;;;;214749;1296;25254;-58
2022/10/12 20:50:14;;;;;;;17.10;11.60;;;21.10;62.00;;;;;;214776;1294;24262;-60
2022/10/12 20:55:22;;;;;;;16.00;11.10;;;21.10;61.90;;;;;;214756;1287;22474;-56
2022/10/12 21:00:29;;;;;;;18.70;11.80;;;21.10;62.20;;;;;;214437;1300;22898;-61
2022/10/12 21:05:45;;;;;;;20.20;12.00;;;21.10;61.80;;;;;;214652;1285;22469;-59
2022/10/12 21:10:52;;;;;;;18.60;12.10;;;21.00;61.90;;;;;;214771;1284;24240;-59
2022/10/12 21:15:58;;;;;;;18.60;11.60;;;21.10;62.10;;;;;;214857;1300;23881;-57
2022/10/12 21:21:22;;;;;;;19.10;11.40;;;21.00;62.10;;;;;;214803;1285;22852;-57
2022/10/12 21:26:31;;;;;;;18.50;11.20;;;21.00;62.30;;;;;;214689;1284;24262;-58
2022/10/12 21:31:38;;;;;;;19.30;11.60;;;21.00;62.30;;;;;;214814;1284;24192;-57
2022/10/12 21:36:42;;;;;;;18.40;11.70;;;21.00;62.40;;;;;;214764;1283;22484;-59
2022/10/12 21:41:50;;;;;;;20.00;12.10;;;21.00;62.40;;;;;;214858;1290;25826;-55
2022/10/12 21:46:54;;;;;;;16.00;10.60;;;21.00;62.40;;;;;;214887;1296;22588;-59
2022/10/12 21:52:02;;;;;;;21.70;11.90;;;21.00;62.60;;;;;;214932;1284;26446;-56
2022/10/12 21:57:07;;;;;;;19.40;11.20;;;21.20;63.20;;;;;;214890;1281;24236;-55
2022/10/12 22:02:13;;;;;;;19.20;11.10;;;21.30;62.80;;;;;;214967;1284;22472;-56
2022/10/12 22:07:28;;;;;;;20.60;11.60;;;21.50;62.30;;;;;;215041;1299;22492;-54
2022/10/12 22:12:41;;;;;;;18.40;11.40;;;21.60;62.10;;;;;;215167;1294;25288;-55
2022/10/12 22:17:48;;;;;;;20.70;11.10;;;21.70;61.40;;;;;;215095;1282;22595;-56
2022/10/12 22:22:56;;;;;;;18.30;10.80;;;21.80;61.70;;;;;;214969;1283;25491;-55
2022/10/12 22:27:59;;;;;;;19.00;10.60;;;21.80;61.10;;;;;;214665;1286;25311;-53
2022/10/12 22:33:04;;;;;;;21.00;10.40;;;21.80;61.30;;;;;;214923;1285;23449;-56
2022/10/12 22:38:09;;;;;;;18.20;10.20;;;21.80;61.30;;;;;;214988;1281;22707;-58
2022/10/12 22:43:12;;;;;;;17.60;10.50;;;21.70;61.10;;;;;;215170;1282;24241;-56
2022/10/12 22:48:16;;;;;;;20.00;10.40;;;21.70;61.40;;;;;;215116;1281;24246;-56
2022/10/12 22:53:22;;;;;;;17.20;10.40;;;21.70;61.30;;;;;;214733;1294;23918;-55
2022/10/12 22:58:27;;;;;;;17.90;10.10;;;21.70;61.50;;;;;;216285;1294;23824;-56
2022/10/12 23:03:32;;;;;;;22.70;10.70;;;21.70;61.50;;;;;;214904;1300;24240;-54
2022/10/12 23:08:38;;;;;;;19.10;10.90;;;21.70;61.30;;;;;;214713;1284;24880;-54
2022/10/12 23:13:42;;;;;;;28.20;12.70;;;21.70;61.30;;;;;;214692;1284;22516;-54
2022/10/12 23:18:46;;;;;;;18.20;11.00;;;21.70;61.80;;;;;;222998;1286;22166;-54
2022/10/12 23:23:49;;;;;;;18.40;10.80;;;21.70;61.40;;;;;;214879;1281;25243;-56
2022/10/12 23:28:53;;;;;;;17.50;10.20;;;21.70;61.40;;;;;;214998;1297;25336;-56
2022/10/12 23:33:59;;;;;;;15.50;10.20;;;21.60;61.50;;;;;;215055;1290;26570;-56
2022/10/12 23:39:04;;;;;;;16.80;10.20;;;21.60;61.70;;;;;;214707;1291;22470;-57
2022/10/12 23:44:08;;;;;;;17.40;10.20;;;21.50;61.80;;;;;;215085;1284;22483;-54
2022/10/12 23:49:11;;;;;;;17.00;9.70;;;21.60;61.50;;;;;;215007;1287;22507;-55
2022/10/12 23:54:15;;;;;;;17.50;10.90;;;21.50;62.30;;;;;;215016;1290;22511;-58
2022/10/12 23:59:18;;;;;;;15.40;10.50;;;21.50;61.90;;;;;;214941;1293;23862;-56
